Data for 12/12/2014

Time Sea-Level Adjusted Pressure Absolute Pressure Temperature Relative Humidity Dew Point   
(mb) (inHg) (mb) (inHg) (C) (F) (%) (C) (F)
00:05 1011 29.85 840 24.81 10.8 51.5 35 -3.9 25
00:10 1011 29.85 840 24.81 11 51.7 35 -3.9 25.1
00:15 1011 29.85 840 24.81 10.9 51.6 35 -3.8 25.2
00:20 1011 29.85 840 24.81 10.9 51.7 36 -3.6 25.6
00:25 1011 29.85 840 24.81 9.9 49.8 39 -3.3 26
00:30 1011 29.85 840 24.81 9.1 48.4 40 -3.9 25
00:35 1011 29.85 840 24.81 8.9 48 40 -4 24.7
00:40 1011 29.85 840 24.81 8.9 47.9 39 -4.4 24
00:45 1011 29.85 840 24.81 9 48.3 39 -4.2 24.5
00:50 1011 29.85 840 24.81 9.1 48.3 38 -4.3 24.2
00:55 1011 29.85 840 24.81 8.9 48 40 -4.1 24.7
01:00 1011 29.85 840 24.81 8.5 47.4 41 -4 24.8
01:05 1011 29.85 840 24.81 8.5 47.4 40 -4.3 24.2
01:10 1011 29.85 840 24.81 8.9 48 39 -4.3 24.3
01:15 1011 29.85 840 24.81 8.6 47.5 41 -3.9 24.9
01:20 1011 29.85 840 24.81 8.9 48 38 -4.5 24
01:25 1011 29.85 840 24.81 9.4 49 38 -4.1 24.6
01:30 1011 29.85 840 24.81 9.5 49 38 -4.3 24.3
01:35 1011 29.85 840 24.81 10.1 50.2 36 -4.4 24.2
01:40 1011 29.85 840 24.81 9.9 49.8 38 -3.7 25.3
01:45 1011 29.85 840 24.81 9.7 49.5 36 -4.7 23.5
01:50 1011 29.85 840 24.81 10.3 50.6 35 -4.4 24.1
01:55 1011 29.85 840 24.81 10.5 50.9 35 -4.3 24.2
02:00 1011 29.85 840 24.81 10.4 50.7 35 -4.3 24.2
02:05 1011 29.85 840 24.81 10.3 50.5 36 -4.1 24.7
02:10 1011 29.85 840 24.81 9.8 49.7 36 -4.5 23.8
02:15 1011 29.85 840 24.81 10.1 50.1 36 -4.2 24.4
02:20 1011 29.85 840 24.81 9.9 49.8 35 -4.9 23.2
02:25 1011 29.85 840 24.81 10.2 50.4 35 -4.4 24.1
02:30 1011 29.85 840 24.81 9.6 49.3 37 -4.2 24.5
02:35 1011 29.85 840 24.81 9.5 49.1 36 -4.8 23.4
02:40 1011 29.85 840 24.81 9.8 49.7 35 -4.9 23.2
02:45 1011 29.85 840 24.81 9.8 49.6 36 -4.5 23.8
02:50 1011 29.85 840 24.81 9.9 49.8 37 -4.1 24.6
02:55 1011 29.85 840 24.81 9.6 49.4 35 -5.2 22.7
03:00 1011 29.85 840 24.81 9.9 49.8 37 -4.2 24.5
03:05 1011 29.85 840 24.81 9.2 48.6 38 -4.2 24.4
03:10 1011 29.85 840 24.81 9.2 48.5 39 -4.2 24.5
03:15 1011 29.85 840 24.81 8.8 47.9 39 -4.5 23.9
03:20 1011 29.85 840 24.81 8.6 47.6 40 -4.3 24.3
03:25 1011 29.85 840 24.81 8.5 47.3 40 -4.4 24
03:30 1011 29.85 841 24.83 8.2 46.8 41 -4.3 24.3
03:35 1011 29.85 840 24.81 8.2 46.7 41 -4.4 24.1
03:40 1011 29.85 840 24.81 8.3 47 36 -5.8 21.6
03:45 1011 29.85 840 24.81 8.8 47.8 39 -4.3 24.3
03:50 1011 29.85 840 24.81 8.4 47.1 39 -4.6 23.8
03:55 1011 29.85 840 24.81 8.3 47 38 -5.1 22.9
04:00 1011 29.85 840 24.81 8.9 48 36 -5.2 22.7
04:05 1011 29.85 840 24.81 9.3 48.8 36 -5.1 22.8
04:10 1011 29.85 840 24.81 9.1 48.5 35 -5.3 22.4
04:15 1011 29.85 840 24.81 9.1 48.3 38 -4.3 24.2
04:20 1011 29.85 840 24.81 8.3 46.9 39 -4.9 23.2
04:25 1011 29.85 840 24.81 8.4 47 39 -4.7 23.6
04:30 1011 29.85 840 24.81 8.4 47.2 39 -4.8 23.4
04:35 1011 29.85 840 24.81 8.4 47.1 39 -4.9 23.2
04:40 1011 29.85 840 24.81 8.6 47.5 38 -4.9 23.1
04:45 1011 29.85 840 24.81 8.6 47.5 38 -5 23.1
04:50 1011 29.85 840 24.81 8.7 47.6 38 -4.8 23.4
04:55 1011 29.85 840 24.81 8.4 47.1 39 -4.8 23.3
05:00 1011 29.85 840 24.81 8.5 47.2 38 -5 23
05:05 1011 29.85 840 24.81 8.7 47.6 37 -5.2 22.6
05:10 1011 29.85 840 24.81 9.1 48.3 36 -5.1 22.9
05:15 1011 29.85 840 24.81 8.9 48 36 -5.4 22.3
05:20 1011 29.85 840 24.81 9.1 48.4 36 -5 23
05:25 1011 29.85 840 24.81 9 48.1 36 -5.4 22.3
05:30 1011 29.85 840 24.81 9 48.2 36 -5.2 22.7
05:35 1011 29.85 840 24.81 8.8 47.8 36 -5.3 22.5
05:40 1011 29.85 840 24.81 8.8 47.8 37 -5.2 22.7
05:45 1011 29.85 840 24.81 8.7 47.6 37 -5.3 22.4
05:50 1011 29.85 840 24.81 8.6 47.5 37 -5.3 22.5
05:55 1011 29.85 840 24.81 8.6 47.5 37 -5.4 22.3
06:00 1011 29.85 840 24.81 8.5 47.3 36 -5.5 22
06:05 1011 29.85 840 24.81 9 48.2 35 -5.6 21.9
06:10 1011 29.85 840 24.81 8.9 47.9 36 -5.4 22.3
06:15 1011 29.85 840 24.81 8.7 47.7 36 -5.5 22.1
06:20 1011 29.85 840 24.81 8.6 47.4 36 -5.6 22
06:25 1011 29.85 840 24.81 8.4 47.2 37 -5.2 22.6
06:30 1011 29.85 840 24.81 8.1 46.7 38 -5.3 22.4
06:35 1011 29.85 840 24.81 8 46.5 38 -5.5 22.1
06:40 1011 29.85 840 24.81 8.2 46.7 37 -5.6 21.8
06:45 1011 29.85 840 24.81 8.3 46.9 37 -5.6 21.9
06:50 1011 29.85 840 24.81 8.1 46.6 39 -5 23.1
06:55 1011 29.85 840 24.81 7.7 45.8 38 -5.6 21.9
07:00 1011 29.85 840 24.81 7.8 46.1 40 -5 22.9
07:05 1011 29.85 840 24.81 7.3 45.2 41 -5.1 22.8
07:10 1011 29.85 840 24.81 7.1 44.8 42 -5.1 22.8
07:15 1011 29.85 840 24.81 7.1 44.7 41 -5.4 22.3
07:20 1011 29.85 840 24.81 7.1 44.9 40 -5.5 22.2
07:25 1011 29.85 840 24.81 7.3 45.2 41 -5 23.1
07:30 1011 29.85 840 24.81 7.1 44.7 41 -5.4 22.3
07:35 1011 29.85 840 24.81 7.1 44.9 41 -5.3 22.4
07:40 1011 29.85 840 24.81 7.3 45.1 40 -5.4 22.3
07:45 1011 29.85 840 24.81 7.4 45.3 41 -5 22.9
07:50 1011 29.85 841 24.83 7.1 44.8 41 -5.2 22.6
07:55 1011 29.85 840 24.81 7.1 44.8 41 -5.4 22.3
08:00 1011 29.85 840 24.81 7.4 45.3 39 -5.5 22
08:05 1011 29.85 840 24.81 7.7 45.8 39 -5.3 22.4
08:10 1011 29.85 840 24.81 8 46.5 38 -5.4 22.4
08:15 1011 29.85 840 24.81 7.7 45.9 38 -5.6 21.8
08:20 1011 29.85 840 24.81 7.8 46 36 -6.2 20.8
08:25 1011 29.85 840 24.81 8.3 46.9 37 -5.7 21.8
08:30 1011 29.85 840 24.81 7.9 46.2 38 -5.6 21.9
08:35 1011 29.85 840 24.81 8.2 46.7 36 -6 21.2
08:40 1011 29.85 840 24.81 8.4 47.2 35 -6.2 20.9
08:45 1011 29.85 840 24.81 8.4 47.1 35 -6.3 20.6
08:50 1011 29.85 840 24.81 8.7 47.7 35 -6 21.3
08:55 1011 29.85 840 24.81 8.9 48 32 -7 19.4
09:00 1011 29.85 840 24.81 9.5 49.1 31 -7 19.5
09:05 1011 29.85 840 24.81 9.8 49.6 33 -5.9 21.4
09:10 1011 29.85 840 24.81 9 48.1 33 -6.3 20.7
09:15 1011 29.85 840 24.81 8.7 47.7 33 -6.6 20.2
09:20 1011 29.85 840 24.81 9.2 48.6 33 -6.2 20.8
09:25 1011 29.85 840 24.81 9.2 48.6 33 -6.3 20.7
09:30 1011 29.85 840 24.81 9.4 49 33 -6.2 20.9
09:35 1011 29.85 840 24.81 9.3 48.7 32 -6.6 20.2
09:40 1011 29.85 840 24.81 9.4 49 33 -6.2 20.9
09:45 1011 29.85 840 24.81 9 48.2 34 -5.9 21.4
09:50 1011 29.85 840 24.81 8.6 47.4 36 -5.6 21.8
09:55 1011 29.85 840 24.81 8.2 46.8 37 -5.7 21.8
10:00 1011 29.85 840 24.81 8.2 46.8 36 -5.9 21.4
10:05 1011 29.85 840 24.81 8.5 47.3 34 -6.3 20.6
10:10 1011 29.85 840 24.81 8.9 47.9 33 -6.4 20.5
10:15 1011 29.85 840 24.81 9 48.2 34 -6.1 21
10:20 1011 29.85 840 24.81 8.9 48 34 -6.2 20.8
10:25 1011 29.85 840 24.81 9 48.2 34 -6.2 20.8
10:30 1011 29.85 840 24.81 9 48.1 34 -6.2 20.9
10:35 1011 29.85 840 24.81 8.8 47.9 35 -5.8 21.6
10:40 1011 29.85 840 24.81 8.7 47.6 35 -6 21.2
10:45 1011 29.85 840 24.81 8.7 47.7 35 -5.9 21.4
10:50 1011 29.85 840 24.81 8.8 47.9 33 -6.7 20
10:55 1011 29.85 840 24.81 9.8 49.6 32 -6.2 20.8
11:00 1011 29.85 840 24.81 9.6 49.2 33 -5.8 21.5
11:05 1011 29.85 840 24.81 9.5 49.1 32 -6.3 20.6
11:10 1011 29.85 840 24.81 9.6 49.3 33 -5.9 21.3
11:15 1011 29.85 840 24.81 9.4 49 33 -5.9 21.3
11:20 1011 29.85 840 24.81 9.3 48.7 34 -5.9 21.4
11:25 1011 29.85 841 24.83 9.2 48.6 33 -6.1 21
11:30 1011 29.85 841 24.83 9.6 49.2 33 -6 21.2
11:35 1011 29.85 840 24.81 9.8 49.7 32 -6.2 20.9
11:40 1011 29.85 840 24.81 10.3 50.6 30 -6.3 20.7
11:45 1011 29.85 840 24.81 11.2 52.2 30 -5.8 21.5
11:50 1011 29.85 840 24.81 12.2 53.9 25 -7.4 18.6
11:55 1011 29.85 840 24.81 13.4 56 25 -6.2 20.8
12:00 1011 29.85 840 24.81 13.6 56.5 23 -7.2 19.1
12:05 1011 29.85 840 24.81 14.3 57.7 21 -7.7 18.1
12:10 1011 29.85 840 24.81 14.5 58.1 22 -7.2 19.1
12:15 1011 29.85 840 24.81 14.8 58.7 21 -7.3 18.9
12:20 1011 29.85 840 24.81 15.1 59.1 21 -7.1 19.3
12:25 1011 29.85 840 24.81 15.2 59.4 20 -7.8 18
12:30 1011 29.85 840 24.81 15.3 59.6 19 -8.4 16.9
12:35 1011 29.85 840 24.81 15.5 59.9 20 -7.5 18.5
12:40 1011 29.85 840 24.81 15.4 59.8 21 -7 19.4
12:45 1010 29.83 840 24.81 15.4 59.7 21 -6.9 19.5
12:50 1010 29.83 840 24.81 15.5 59.8 22 -6.4 20.5
12:55 1010 29.83 840 24.81 15.5 59.9 20 -7.5 18.5
13:00 1010 29.83 839 24.78 15.7 60.2 19 -7.7 18.1
13:05 1010 29.83 839 24.78 15.9 60.5 19 -7.7 18.1
13:10 1010 29.83 839 24.78 15.9 60.6 18 -8.1 17.5
13:15 1010 29.83 839 24.78 16 60.8 19 -7.8 18
13:20 1010 29.83 839 24.78 16.1 61 19 -7.6 18.3
13:25 1010 29.83 839 24.78 16.2 61.1 19 -7.7 18.1
13:30 1010 29.83 839 24.78 16.1 61.1 19 -7.7 18.1
13:35 1010 29.83 839 24.78 16.1 61 20 -7 19.4
13:40 1010 29.83 839 24.78 15.9 60.6 20 -7 19.5
13:45 1010 29.83 839 24.78 15.8 60.4 16 -9.9 14.3
13:50 1010 29.83 839 24.78 16.1 61 18 -8.2 17.2
13:55 1010 29.83 839 24.78 16 60.8 17 -8.6 16.5
14:00 1010 29.83 839 24.78 16 60.8 17 -8.7 16.4
14:05 1010 29.83 839 24.78 16 60.8 19 -7.9 17.9
14:10 1010 29.83 839 24.78 15.8 60.5 18 -8.1 17.3
14:15 1010 29.83 839 24.78 15.8 60.4 17 -8.8 16.1
14:20 1010 29.83 839 24.78 15.9 60.6 18 -8.4 16.9
14:25 1010 29.83 839 24.78 15.8 60.4 18 -8.2 17.2
14:30 1010 29.83 839 24.78 15.7 60.2 17 -9.1 15.6
14:35 1010 29.83 839 24.78 15.9 60.7 17 -8.9 16
14:40 1010 29.83 839 24.78 16.1 60.9 17 -9.1 15.6
14:45 1010 29.83 839 24.78 16 60.9 17 -8.9 16
14:50 1010 29.83 839 24.78 16.1 61 16 -10 14.1
14:55 1010 29.83 839 24.78 16 60.8 18 -8.2 17.3
15:00 1010 29.83 839 24.78 16 60.7 17 -9.1 15.5
15:05 1010 29.83 839 24.78 16.1 60.9 18 -8.5 16.6
15:10 1010 29.83 839 24.78 16 60.8 17 -9.1 15.6
15:15 1010 29.83 839 24.78 16 60.7 18 -8.3 17
15:20 1010 29.83 839 24.78 15.9 60.7 17 -9.1 15.6
15:25 1010 29.83 839 24.78 16 60.8 19 -7.8 18
15:30 1010 29.83 839 24.78 16 60.7 18 -8.1 17.4
15:35 1010 29.83 839 24.78 15.8 60.5 17 -8.9 16
15:40 1010 29.83 839 24.78 15.8 60.5 17 -8.9 15.9
15:45 1010 29.83 839 24.78 15.7 60.2 17 -9.4 15.1
15:50 1010 29.83 839 24.78 15.4 59.7 18 -8.7 16.3
15:55 1010 29.83 839 24.78 15 59 20 -8 17.6
16:00 1010 29.83 839 24.78 14.6 58.2 18 -9.4 15
16:05 1010 29.83 839 24.78 14.8 58.6 19 -8.5 16.8
16:10 1010 29.83 839 24.78 14.9 58.8 18 -8.9 16
16:15 1010 29.83 839 24.78 14.6 58.3 18 -9.1 15.6
16:20 1010 29.83 839 24.78 14.8 58.6 19 -8.5 16.6
16:25 1010 29.83 839 24.78 14.9 58.8 18 -9.5 14.9
16:30 1010 29.83 839 24.78 14.6 58.3 21 -7.6 18.3
16:35 1010 29.83 839 24.78 14.4 57.8 19 -9.2 15.4
16:40 1010 29.83 839 24.78 14.1 57.4 20 -8.2 17.3
16:45 1010 29.83 839 24.78 13.9 57 21 -8.2 17.2
16:50 1010 29.83 839 24.78 14.4 58 18 -9.9 14.3
16:55 1010 29.83 839 24.78 14.3 57.7 20 -8.3 17.1
17:00 1010 29.83 839 24.78 14.2 57.5 18 -9.7 14.6
17:05 1010 29.83 840 24.81 14.2 57.5 20 -8.7 16.3
17:10 1010 29.83 840 24.81 13.9 57 20 -8.8 16.2
17:15 1010 29.83 839 24.78 13.6 56.6 20 -9.2 15.4
17:20 1010 29.83 839 24.78 13.9 57.1 19 -9.2 15.5
17:25 1010 29.83 839 24.78 13.8 56.8 20 -8.5 16.8
17:30 1010 29.83 839 24.78 13.8 56.9 19 -9.4 15
17:35 1010 29.83 839 24.78 14.1 57.4 19 -9.2 15.4
17:40 1010 29.83 839 24.78 14.2 57.5 18 -9.5 14.9
17:45 1010 29.83 839 24.78 14.2 57.5 18 -9.7 14.6
17:50 1010 29.83 839 24.78 13.9 57 19 -9.5 14.8
17:55 1010 29.83 839 24.78 13.6 56.4 19 -9.7 14.6
18:00 1010 29.83 839 24.78 13.2 55.7 19 -9.8 14.3
18:05 1010 29.83 839 24.78 13.1 55.5 19 -10 14
18:10 1010 29.83 839 24.78 13.4 56 19 -10.1 13.8
18:15 1010 29.83 839 24.78 13.1 55.5 20 -9.7 14.6
18:20 1010 29.83 839 24.78 12.9 55.3 19 -10.1 13.9
18:25 1010 29.83 839 24.78 13 55.3 20 -9.7 14.5
18:30 1010 29.83 839 24.78 12.7 54.9 20 -9.5 14.8
18:35 1010 29.83 839 24.78 12.5 54.6 20 -9.8 14.3
18:40 1010 29.83 839 24.78 12.5 54.5 20 -9.7 14.5
18:45 1010 29.83 839 24.78 12.6 54.7 21 -9.2 15.5
18:50 1010 29.83 839 24.78 12.1 53.7 22 -9.1 15.6
18:55 1010 29.83 839 24.78 11.9 53.3 22 -9.2 15.4
19:00 1010 29.83 839 24.78 11.8 53.2 22 -9.2 15.4
19:05 1010 29.83 839 24.78 11.6 52.9 22 -9.1 15.6
19:10 1010 29.83 839 24.78 11.1 52 24 -8.6 16.5
19:15 1010 29.83 839 24.78 10.7 51.3 25 -8.6 16.5
19:20 1010 29.83 839 24.78 10.5 50.8 26 -8.5 16.8
19:25 1010 29.83 839 24.78 10.4 50.7 24 -9.3 15.3
19:30 1010 29.83 839 24.78 11.1 51.9 22 -9.6 14.7
19:35 1010 29.83 839 24.78 11.4 52.5 22 -9.3 15.3
19:40 1010 29.83 839 24.78 11.5 52.6 23 -9 15.9
19:45 1010 29.83 839 24.78 11.1 51.9 24 -8.8 16.1
19:50 1010 29.83 839 24.78 10.6 51 25 -8.5 16.7
19:55 1010 29.83 839 24.78 10 50 25 -9.2 15.4
20:00 1010 29.83 839 24.78 10.2 50.4 27 -7.7 18.1
20:05 1010 29.83 839 24.78 9.7 49.5 25 -9.4 15
20:10 1010 29.83 839 24.78 10.2 50.3 25 -9.1 15.6
20:15 1010 29.83 839 24.78 10.1 50.1 26 -8.8 16.1
20:20 1010 29.83 839 24.78 10 50 25 -9 15.7
20:25 1010 29.83 839 24.78 10 50 25 -9.1 15.7
20:30 1010 29.83 839 24.78 9.7 49.5 28 -8 17.7
20:35 1010 29.83 839 24.78 9.3 48.7 25 -9.8 14.3
20:40 1010 29.83 839 24.78 10.1 50.1 24 -9.4 15.2
20:45 1010 29.83 839 24.78 10 50 26 -8.6 16.6
20:50 1010 29.83 839 24.78 9.3 48.8 27 -8.6 16.5
20:55 1010 29.83 839 24.78 9.6 49.2 24 -9.9 14.1
21:00 1010 29.83 839 24.78 10.2 50.3 24 -9.4 15.1
21:05 1010 29.83 839 24.78 11 51.8 22 -9.9 14.2
21:10 1010 29.83 839 24.78 11.4 52.5 22 -9.5 14.9
21:15 1010 29.83 839 24.78 11 51.8 23 -9.1 15.6
21:20 1010 29.83 839 24.78 11.2 52.1 21 -10.2 13.7
21:25 1010 29.83 839 24.78 10.9 51.6 25 -8.3 17.1
21:30 1010 29.83 839 24.78 9.7 49.5 24 -9.8 14.3
21:35 1010 29.83 839 24.78 11 51.8 22 -10 14
21:40 1010 29.83 839 24.78 11.6 52.9 23 -9.1 15.6
21:45 1010 29.83 839 24.78 11 51.7 23 -9.2 15.4
21:50 1010 29.83 839 24.78 11 51.8 24 -8.8 16.1
21:55 1010 29.83 839 24.78 10.9 51.6 24 -8.7 16.3
22:00 1010 29.83 839 24.78 11 51.8 22 -9.7 14.6
22:05 1010 29.83 839 24.78 12.3 54.1 22 -9 15.8
22:10 1010 29.83 839 24.78 11.4 52.5 24 -8.4 16.8
22:15 1010 29.83 839 24.78 11.4 52.5 24 -8.7 16.4
22:20 1010 29.83 839 24.78 10.6 51 24 -9.1 15.7
22:25 1010 29.83 839 24.78 10.6 51.2 24 -9 15.9
22:30 1010 29.83 839 24.78 11 51.8 24 -8.6 16.5
22:35 1010 29.83 839 24.78 10.7 51.3 25 -8.5 16.7
22:40 1010 29.83 839 24.78 10.1 50.2 26 -8.6 16.4
22:45 1010 29.83 839 24.78 9.9 49.8 26 -8.5 16.7
22:50 1010 29.83 839 24.78 8.8 47.9 30 -8 17.7
22:55 1010 29.83 839 24.78 8.8 47.8 28 -8.6 16.6
23:00 1010 29.83 839 24.78 8.1 46.5 32 -7.8 18
23:05 1010 29.83 839 24.78 8.3 47 26 -9.9 14.2
23:10 1010 29.83 839 24.78 9.4 48.9 28 -8.1 17.4
23:15 1010 29.83 839 24.78 9.5 49.1 25 -9.7 14.5
23:20 1010 29.83 839 24.78 10.1 50.2 25 -8.8 16.1
23:25 1010 29.83 839 24.78 11 51.8 23 -9.1 15.6
23:30 1010 29.83 839 24.78 11.6 52.8 23 -8.7 16.3
23:35 1010 29.83 839 24.78 11.1 51.9 25 -8.3 17.1
23:40 1010 29.83 839 24.78 11.9 53.3 23 -8.7 16.3
23:45 1010 29.83 839 24.78 12.2 54 23 -8.2 17.2
23:50 1010 29.83 839 24.78 12.2 54 24 -7.9 17.8
23:55 1010 29.83 839 24.78 11.7 53 25 -7.8 18
24:00 1010 29.83 839 24.78 11.7 53.1 25 -7.7 18.2